sensor_id;sensor_type;location;lat;lon;timestamp;temperature;humidity
24678;DHT22;12800;53.094;8.778;2022-08-19T00:02:25;20.40;79.30
24678;DHT22;12800;53.094;8.778;2022-08-19T00:04:50;20.40;79.50
24678;DHT22;12800;53.094;8.778;2022-08-19T00:07:19;20.40;79.50
24678;DHT22;12800;53.094;8.778;2022-08-19T00:09:45;20.40;79.70
24678;DHT22;12800;53.094;8.778;2022-08-19T00:12:11;20.40;79.70
24678;DHT22;12800;53.094;8.778;2022-08-19T00:14:37;20.40;79.80
24678;DHT22;12800;53.094;8.778;2022-08-19T00:17:04;20.40;79.90
24678;DHT22;12800;53.094;8.778;2022-08-19T00:19:30;20.50;80.00
24678;DHT22;12800;53.094;8.778;2022-08-19T00:21:56;20.50;80.00
24678;DHT22;12800;53.094;8.778;2022-08-19T00:24:22;20.50;80.10
24678;DHT22;12800;53.094;8.778;2022-08-19T00:26:48;20.50;80.10
24678;DHT22;12800;53.094;8.778;2022-08-19T00:29:19;20.50;80.10
24678;DHT22;12800;53.094;8.778;2022-08-19T00:31:46;20.60;80.20
24678;DHT22;12800;53.094;8.778;2022-08-19T00:34:13;20.60;80.00
24678;DHT22;12800;53.094;8.778;2022-08-19T00:36:40;20.60;80.00
24678;DHT22;12800;53.094;8.778;2022-08-19T00:39:06;20.60;80.00
24678;DHT22;12800;53.094;8.778;2022-08-19T00:41:32;20.60;80.00
24678;DHT22;12800;53.094;8.778;2022-08-19T00:44:19;20.60;79.90
24678;DHT22;12800;53.094;8.778;2022-08-19T00:46:47;20.60;79.90
24678;DHT22;12800;53.094;8.778;2022-08-19T00:49:26;20.60;79.90
24678;DHT22;12800;53.094;8.778;2022-08-19T00:51:59;20.70;80.00
24678;DHT22;12800;53.094;8.778;2022-08-19T00:54:25;20.70;79.90
24678;DHT22;12800;53.094;8.778;2022-08-19T00:56:51;20.70;79.70
24678;DHT22;12800;53.094;8.778;2022-08-19T00:59:19;20.60;79.70
24678;DHT22;12800;53.094;8.778;2022-08-19T01:01:45;20.70;79.70
24678;DHT22;12800;53.094;8.778;2022-08-19T01:04:12;20.70;79.70
24678;DHT22;12800;53.094;8.778;2022-08-19T01:06:39;20.70;79.60
24678;DHT22;12800;53.094;8.778;2022-08-19T01:09:07;20.70;79.50
24678;DHT22;12800;53.094;8.778;2022-08-19T01:11:36;20.70;79.50
24678;DHT22;12800;53.094;8.778;2022-08-19T01:14:04;20.70;79.40
24678;DHT22;12800;53.094;8.778;2022-08-19T01:16:32;20.70;79.50
24678;DHT22;12800;53.094;8.778;2022-08-19T01:18:58;20.70;79.30
24678;DHT22;12800;53.094;8.778;2022-08-19T01:23:49;20.70;79.40
24678;DHT22;12800;53.094;8.778;2022-08-19T01:26:19;20.60;79.40
24678;DHT22;12800;53.094;8.778;2022-08-19T01:28:47;20.60;79.40
24678;DHT22;12800;53.094;8.778;2022-08-19T01:31:17;20.60;79.40
24678;DHT22;12800;53.094;8.778;2022-08-19T01:33:44;20.60;79.30
24678;DHT22;12800;53.094;8.778;2022-08-19T01:36:19;20.60;79.40
24678;DHT22;12800;53.094;8.778;2022-08-19T01:38:47;20.60;79.40
24678;DHT22;12800;53.094;8.778;2022-08-19T01:41:13;20.60;79.50
24678;DHT22;12800;53.094;8.778;2022-08-19T01:43:40;20.60;79.50
24678;DHT22;12800;53.094;8.778;2022-08-19T01:46:06;20.60;79.40
24678;DHT22;12800;53.094;8.778;2022-08-19T01:48:40;20.60;79.20
24678;DHT22;12800;53.094;8.778;2022-08-19T01:51:07;20.60;79.30
24678;DHT22;12800;53.094;8.778;2022-08-19T01:53:33;20.60;79.30
24678;DHT22;12800;53.094;8.778;2022-08-19T01:55:59;20.60;79.30
24678;DHT22;12800;53.094;8.778;2022-08-19T01:58:29;20.50;79.30
24678;DHT22;12800;53.094;8.778;2022-08-19T02:00:56;20.50;79.40
24678;DHT22;12800;53.094;8.778;2022-08-19T02:03:22;20.50;79.40
24678;DHT22;12800;53.094;8.778;2022-08-19T02:05:54;20.40;79.50
24678;DHT22;12800;53.094;8.778;2022-08-19T02:08:20;20.50;79.60
24678;DHT22;12800;53.094;8.778;2022-08-19T02:10:46;20.50;79.70
24678;DHT22;12800;53.094;8.778;2022-08-19T02:13:12;20.50;79.70
24678;DHT22;12800;53.094;8.778;2022-08-19T02:15:39;20.50;79.60
24678;DHT22;12800;53.094;8.778;2022-08-19T02:18:05;20.50;79.60
24678;DHT22;12800;53.094;8.778;2022-08-19T02:20:30;20.50;79.60
24678;DHT22;12800;53.094;8.778;2022-08-19T02:22:56;20.50;79.50
24678;DHT22;12800;53.094;8.778;2022-08-19T02:25:22;20.50;79.50
24678;DHT22;12800;53.094;8.778;2022-08-19T02:27:47;20.40;79.30
24678;DHT22;12800;53.094;8.778;2022-08-19T02:30:15;20.40;79.40
24678;DHT22;12800;53.094;8.778;2022-08-19T02:32:41;20.50;79.60
24678;DHT22;12800;53.094;8.778;2022-08-19T02:35:08;20.50;79.60
24678;DHT22;12800;53.094;8.778;2022-08-19T02:37:34;20.40;79.40
24678;DHT22;12800;53.094;8.778;2022-08-19T02:40:18;20.40;79.50
24678;DHT22;12800;53.094;8.778;2022-08-19T02:42:44;20.40;79.60
24678;DHT22;12800;53.094;8.778;2022-08-19T02:45:12;20.40;79.70
24678;DHT22;12800;53.094;8.778;2022-08-19T02:47:38;20.40;79.80
24678;DHT22;12800;53.094;8.778;2022-08-19T02:50:05;20.30;79.80
24678;DHT22;12800;53.094;8.778;2022-08-19T02:52:32;20.30;79.90
24678;DHT22;12800;53.094;8.778;2022-08-19T02:54:58;20.30;79.90
24678;DHT22;12800;53.094;8.778;2022-08-19T02:57:24;20.30;80.00
24678;DHT22;12800;53.094;8.778;2022-08-19T02:59:50;20.30;80.00
24678;DHT22;12800;53.094;8.778;2022-08-19T03:02:16;20.30;79.80
24678;DHT22;12800;53.094;8.778;2022-08-19T03:04:41;20.30;79.60
24678;DHT22;12800;53.094;8.778;2022-08-19T03:07:08;20.20;79.40
24678;DHT22;12800;53.094;8.778;2022-08-19T03:09:37;20.20;79.40
24678;DHT22;12800;53.094;8.778;2022-08-19T03:12:03;20.20;79.40
24678;DHT22;12800;53.094;8.778;2022-08-19T03:14:35;20.10;79.40
24678;DHT22;12800;53.094;8.778;2022-08-19T03:17:02;20.10;79.60
24678;DHT22;12800;53.094;8.778;2022-08-19T03:19:28;20.10;79.50
24678;DHT22;12800;53.094;8.778;2022-08-19T03:21:54;20.10;79.50
24678;DHT22;12800;53.094;8.778;2022-08-19T03:24:21;20.10;79.60
24678;DHT22;12800;53.094;8.778;2022-08-19T03:26:49;20.10;79.60
24678;DHT22;12800;53.094;8.778;2022-08-19T03:29:18;20.10;79.60
24678;DHT22;12800;53.094;8.778;2022-08-19T03:31:44;20.10;79.40
24678;DHT22;12800;53.094;8.778;2022-08-19T03:34:16;20.10;79.30
24678;DHT22;12800;53.094;8.778;2022-08-19T03:36:43;20.20;79.20
24678;DHT22;12800;53.094;8.778;2022-08-19T03:39:10;20.20;79.20
24678;DHT22;12800;53.094;8.778;2022-08-19T03:41:38;20.20;79.20
24678;DHT22;12800;53.094;8.778;2022-08-19T03:44:04;20.20;79.10
24678;DHT22;12800;53.094;8.778;2022-08-19T03:46:31;20.30;79.00
24678;DHT22;12800;53.094;8.778;2022-08-19T03:48:59;20.30;79.00
24678;DHT22;12800;53.094;8.778;2022-08-19T03:51:32;20.30;79.00
24678;DHT22;12800;53.094;8.778;2022-08-19T03:54:00;20.30;78.90
24678;DHT22;12800;53.094;8.778;2022-08-19T03:56:27;20.20;78.80
24678;DHT22;12800;53.094;8.778;2022-08-19T03:58:56;20.20;78.80
24678;DHT22;12800;53.094;8.778;2022-08-19T04:01:24;20.20;78.90
24678;DHT22;12800;53.094;8.778;2022-08-19T04:03:52;20.10;78.90
24678;DHT22;12800;53.094;8.778;2022-08-19T04:06:23;20.10;78.90
24678;DHT22;12800;53.094;8.778;2022-08-19T04:08:51;20.10;79.00
24678;DHT22;12800;53.094;8.778;2022-08-19T04:11:19;20.10;79.00
24678;DHT22;12800;53.094;8.778;2022-08-19T04:13:47;20.10;79.10
24678;DHT22;12800;53.094;8.778;2022-08-19T04:16:13;20.10;79.00
24678;DHT22;12800;53.094;8.778;2022-08-19T04:18:39;20.00;79.00
24678;DHT22;12800;53.094;8.778;2022-08-19T04:21:07;20.00;79.00
24678;DHT22;12800;53.094;8.778;2022-08-19T04:23:34;19.90;79.00
24678;DHT22;12800;53.094;8.778;2022-08-19T04:26:02;19.90;79.00
24678;DHT22;12800;53.094;8.778;2022-08-19T04:28:28;19.90;79.00
24678;DHT22;12800;53.094;8.778;2022-08-19T04:30:54;19.90;79.10
24678;DHT22;12800;53.094;8.778;2022-08-19T04:33:23;19.90;79.10
24678;DHT22;12800;53.094;8.778;2022-08-19T04:35:51;19.80;79.10
24678;DHT22;12800;53.094;8.778;2022-08-19T04:38:19;19.70;79.10
24678;DHT22;12800;53.094;8.778;2022-08-19T04:40:49;19.70;79.20
24678;DHT22;12800;53.094;8.778;2022-08-19T04:43:36;19.60;79.30
24678;DHT22;12800;53.094;8.778;2022-08-19T04:46:10;19.60;79.60
24678;DHT22;12800;53.094;8.778;2022-08-19T04:48:37;19.60;79.70
24678;DHT22;12800;53.094;8.778;2022-08-19T04:51:08;19.60;79.70
24678;DHT22;12800;53.094;8.778;2022-08-19T04:53:37;19.50;79.70
24678;DHT22;12800;53.094;8.778;2022-08-19T04:56:11;19.50;79.80
24678;DHT22;12800;53.094;8.778;2022-08-19T04:58:38;19.40;79.70
24678;DHT22;12800;53.094;8.778;2022-08-19T05:01:04;19.40;79.80
24678;DHT22;12800;53.094;8.778;2022-08-19T05:03:30;19.40;79.80
24678;DHT22;12800;53.094;8.778;2022-08-19T05:06:08;19.40;79.80
24678;DHT22;12800;53.094;8.778;2022-08-19T05:08:38;19.30;79.90
24678;DHT22;12800;53.094;8.778;2022-08-19T05:11:11;19.30;80.00
24678;DHT22;12800;53.094;8.778;2022-08-19T05:13:37;19.30;80.00
24678;DHT22;12800;53.094;8.778;2022-08-19T05:16:03;19.20;80.00
24678;DHT22;12800;53.094;8.778;2022-08-19T05:18:29;19.20;80.00
24678;DHT22;12800;53.094;8.778;2022-08-19T05:21:17;19.20;80.20
24678;DHT22;12800;53.094;8.778;2022-08-19T05:24:02;19.20;80.30
24678;DHT22;12800;53.094;8.778;2022-08-19T05:26:28;19.20;80.20
24678;DHT22;12800;53.094;8.778;2022-08-19T05:28:54;19.20;80.30
24678;DHT22;12800;53.094;8.778;2022-08-19T05:31:20;19.20;80.20
24678;DHT22;12800;53.094;8.778;2022-08-19T05:33:46;19.20;80.10
24678;DHT22;12800;53.094;8.778;2022-08-19T05:36:12;19.20;80.00
24678;DHT22;12800;53.094;8.778;2022-08-19T05:38:39;19.20;80.10
24678;DHT22;12800;53.094;8.778;2022-08-19T05:41:12;19.20;80.30
24678;DHT22;12800;53.094;8.778;2022-08-19T05:43:38;19.20;80.30
24678;DHT22;12800;53.094;8.778;2022-08-19T05:46:05;19.20;80.30
24678;DHT22;12800;53.094;8.778;2022-08-19T05:48:35;19.30;80.40
24678;DHT22;12800;53.094;8.778;2022-08-19T05:51:07;19.30;80.40
24678;DHT22;12800;53.094;8.778;2022-08-19T05:53:34;19.30;80.20
24678;DHT22;12800;53.094;8.778;2022-08-19T05:56:07;19.40;80.10
24678;DHT22;12800;53.094;8.778;2022-08-19T05:58:35;19.30;80.10
24678;DHT22;12800;53.094;8.778;2022-08-19T06:01:00;19.40;80.00
24678;DHT22;12800;53.094;8.778;2022-08-19T06:03:30;19.30;79.90
24678;DHT22;12800;53.094;8.778;2022-08-19T06:05:57;19.30;80.00
24678;DHT22;12800;53.094;8.778;2022-08-19T06:08:27;19.30;80.00
24678;DHT22;12800;53.094;8.778;2022-08-19T06:10:53;19.30;80.00
24678;DHT22;12800;53.094;8.778;2022-08-19T06:13:20;19.30;80.00
24678;DHT22;12800;53.094;8.778;2022-08-19T06:15:46;19.30;80.10
24678;DHT22;12800;53.094;8.778;2022-08-19T06:18:13;19.30;80.20
24678;DHT22;12800;53.094;8.778;2022-08-19T06:20:40;19.40;80.20
24678;DHT22;12800;53.094;8.778;2022-08-19T06:23:06;19.40;80.20
24678;DHT22;12800;53.094;8.778;2022-08-19T06:25:32;19.40;80.30
24678;DHT22;12800;53.094;8.778;2022-08-19T06:27:58;19.40;80.10
24678;DHT22;12800;53.094;8.778;2022-08-19T06:30:23;19.40;80.00
24678;DHT22;12800;53.094;8.778;2022-08-19T06:32:49;19.40;80.00
24678;DHT22;12800;53.094;8.778;2022-08-19T06:35:15;19.40;80.00
24678;DHT22;12800;53.094;8.778;2022-08-19T06:37:41;19.50;80.10
24678;DHT22;12800;53.094;8.778;2022-08-19T06:40:08;19.50;80.00
24678;DHT22;12800;53.094;8.778;2022-08-19T06:42:35;19.60;80.00
24678;DHT22;12800;53.094;8.778;2022-08-19T06:45:04;19.60;79.90
24678;DHT22;12800;53.094;8.778;2022-08-19T06:47:31;19.60;79.90
24678;DHT22;12800;53.094;8.778;2022-08-19T06:49:59;19.70;79.90
24678;DHT22;12800;53.094;8.778;2022-08-19T06:52:33;19.70;79.70
24678;DHT22;12800;53.094;8.778;2022-08-19T06:55:00;19.70;79.60
24678;DHT22;12800;53.094;8.778;2022-08-19T06:57:26;19.80;79.50
24678;DHT22;12800;53.094;8.778;2022-08-19T06:59:52;19.80;79.40
24678;DHT22;12800;53.094;8.778;2022-08-19T07:02:19;19.90;79.30
24678;DHT22;12800;53.094;8.778;2022-08-19T07:04:45;19.90;79.00
24678;DHT22;12800;53.094;8.778;2022-08-19T07:07:13;19.90;78.80
24678;DHT22;12800;53.094;8.778;2022-08-19T07:09:41;19.90;78.60
24678;DHT22;12800;53.094;8.778;2022-08-19T07:12:09;20.00;78.50
24678;DHT22;12800;53.094;8.778;2022-08-19T07:14:35;20.00;78.30
24678;DHT22;12800;53.094;8.778;2022-08-19T07:17:10;20.10;78.30
24678;DHT22;12800;53.094;8.778;2022-08-19T07:19:37;20.10;78.00
24678;DHT22;12800;53.094;8.778;2022-08-19T07:22:05;20.10;77.90
24678;DHT22;12800;53.094;8.778;2022-08-19T07:24:31;20.20;77.80
24678;DHT22;12800;53.094;8.778;2022-08-19T07:26:59;20.30;77.40
24678;DHT22;12800;53.094;8.778;2022-08-19T07:29:28;20.30;77.10
24678;DHT22;12800;53.094;8.778;2022-08-19T07:31:55;20.40;76.60
24678;DHT22;12800;53.094;8.778;2022-08-19T07:34:22;20.40;76.20
24678;DHT22;12800;53.094;8.778;2022-08-19T07:36:49;20.40;76.00
24678;DHT22;12800;53.094;8.778;2022-08-19T07:39:19;20.50;76.00
24678;DHT22;12800;53.094;8.778;2022-08-19T07:41:46;20.50;75.80
24678;DHT22;12800;53.094;8.778;2022-08-19T07:44:12;20.60;75.50
24678;DHT22;12800;53.094;8.778;2022-08-19T07:46:43;20.60;75.30
24678;DHT22;12800;53.094;8.778;2022-08-19T07:49:13;20.70;75.30
24678;DHT22;12800;53.094;8.778;2022-08-19T07:51:50;20.70;75.10
24678;DHT22;12800;53.094;8.778;2022-08-19T07:54:16;20.80;74.60
24678;DHT22;12800;53.094;8.778;2022-08-19T07:56:42;20.80;74.20
24678;DHT22;12800;53.094;8.778;2022-08-19T07:59:08;20.90;74.00
24678;DHT22;12800;53.094;8.778;2022-08-19T08:01:35;20.90;73.50
24678;DHT22;12800;53.094;8.778;2022-08-19T08:04:01;20.90;73.50
24678;DHT22;12800;53.094;8.778;2022-08-19T08:06:45;20.90;73.50
24678;DHT22;12800;53.094;8.778;2022-08-19T08:09:33;20.90;73.30
24678;DHT22;12800;53.094;8.778;2022-08-19T08:12:14;20.90;73.10
24678;DHT22;12800;53.094;8.778;2022-08-19T08:14:44;21.00;73.20
24678;DHT22;12800;53.094;8.778;2022-08-19T08:17:11;21.10;72.70
24678;DHT22;12800;53.094;8.778;2022-08-19T08:19:38;21.20;72.10
24678;DHT22;12800;53.094;8.778;2022-08-19T08:22:07;21.20;71.70
24678;DHT22;12800;53.094;8.778;2022-08-19T08:24:33;21.20;71.50
24678;DHT22;12800;53.094;8.778;2022-08-19T08:27:01;21.20;70.80
24678;DHT22;12800;53.094;8.778;2022-08-19T08:29:28;21.30;70.50
24678;DHT22;12800;53.094;8.778;2022-08-19T08:31:55;21.30;70.40
24678;DHT22;12800;53.094;8.778;2022-08-19T08:34:21;21.40;70.20
24678;DHT22;12800;53.094;8.778;2022-08-19T08:36:47;21.50;70.90
24678;DHT22;12800;53.094;8.778;2022-08-19T08:39:18;21.50;69.70
24678;DHT22;12800;53.094;8.778;2022-08-19T08:42:36;21.60;69.70
24678;DHT22;12800;53.094;8.778;2022-08-19T08:45:13;21.60;70.00
24678;DHT22;12800;53.094;8.778;2022-08-19T08:47:44;21.70;69.10
24678;DHT22;12800;53.094;8.778;2022-08-19T08:50:18;21.80;68.80
24678;DHT22;12800;53.094;8.778;2022-08-19T08:52:47;21.80;68.60
24678;DHT22;12800;53.094;8.778;2022-08-19T08:55:21;21.80;68.50
24678;DHT22;12800;53.094;8.778;2022-08-19T09:00:23;21.90;68.40
24678;DHT22;12800;53.094;8.778;2022-08-19T09:02:50;22.00;68.40
24678;DHT22;12800;53.094;8.778;2022-08-19T09:05:16;22.10;67.80
24678;DHT22;12800;53.094;8.778;2022-08-19T09:10:53;22.10;66.40
24678;DHT22;12800;53.094;8.778;2022-08-19T09:16:06;22.10;66.00
24678;DHT22;12800;53.094;8.778;2022-08-19T09:18:40;22.10;65.90
24678;DHT22;12800;53.094;8.778;2022-08-19T09:21:06;22.10;65.80
24678;DHT22;12800;53.094;8.778;2022-08-19T09:23:35;22.10;65.60
24678;DHT22;12800;53.094;8.778;2022-08-19T09:26:00;22.10;65.30
24678;DHT22;12800;53.094;8.778;2022-08-19T09:28:26;22.10;65.40
24678;DHT22;12800;53.094;8.778;2022-08-19T09:30:53;22.10;65.40
24678;DHT22;12800;53.094;8.778;2022-08-19T09:33:18;22.10;65.50
24678;DHT22;12800;53.094;8.778;2022-08-19T09:35:44;22.10;65.40
24678;DHT22;12800;53.094;8.778;2022-08-19T09:38:11;22.00;65.00
24678;DHT22;12800;53.094;8.778;2022-08-19T09:40:37;22.10;65.10
24678;DHT22;12800;53.094;8.778;2022-08-19T09:43:02;22.10;64.80
24678;DHT22;12800;53.094;8.778;2022-08-19T09:45:28;22.10;65.20
24678;DHT22;12800;53.094;8.778;2022-08-19T09:47:54;22.20;65.50
24678;DHT22;12800;53.094;8.778;2022-08-19T09:50:21;22.20;65.40
24678;DHT22;12800;53.094;8.778;2022-08-19T09:52:46;22.20;64.90
24678;DHT22;12800;53.094;8.778;2022-08-19T09:55:13;22.20;64.50
24678;DHT22;12800;53.094;8.778;2022-08-19T09:57:38;22.30;64.30
24678;DHT22;12800;53.094;8.778;2022-08-19T10:00:06;22.30;64.40
24678;DHT22;12800;53.094;8.778;2022-08-19T10:02:32;22.30;64.10
24678;DHT22;12800;53.094;8.778;2022-08-19T10:04:58;22.40;63.30
24678;DHT22;12800;53.094;8.778;2022-08-19T10:07:42;22.40;63.20
24678;DHT22;12800;53.094;8.778;2022-08-19T10:10:08;22.50;63.00
24678;DHT22;12800;53.094;8.778;2022-08-19T10:12:34;22.50;62.80
24678;DHT22;12800;53.094;8.778;2022-08-19T10:15:01;22.60;62.70
24678;DHT22;12800;53.094;8.778;2022-08-19T10:17:27;22.60;62.40
24678;DHT22;12800;53.094;8.778;2022-08-19T10:19:52;22.70;62.10
24678;DHT22;12800;53.094;8.778;2022-08-19T10:22:18;22.70;62.10
24678;DHT22;12800;53.094;8.778;2022-08-19T10:24:46;22.70;61.90
24678;DHT22;12800;53.094;8.778;2022-08-19T10:27:12;22.70;61.90
24678;DHT22;12800;53.094;8.778;2022-08-19T10:29:39;22.80;61.80
24678;DHT22;12800;53.094;8.778;2022-08-19T10:32:06;22.80;61.80
24678;DHT22;12800;53.094;8.778;2022-08-19T10:34:35;22.90;61.60
24678;DHT22;12800;53.094;8.778;2022-08-19T10:37:03;22.90;61.60
24678;DHT22;12800;53.094;8.778;2022-08-19T10:39:33;22.90;61.40
24678;DHT22;12800;53.094;8.778;2022-08-19T10:41:59;23.00;60.90
24678;DHT22;12800;53.094;8.778;2022-08-19T10:44:25;23.00;60.80
24678;DHT22;12800;53.094;8.778;2022-08-19T10:46:51;23.10;60.50
24678;DHT22;12800;53.094;8.778;2022-08-19T10:49:18;23.20;60.10
24678;DHT22;12800;53.094;8.778;2022-08-19T10:51:44;23.20;59.70
24678;DHT22;12800;53.094;8.778;2022-08-19T10:54:28;23.30;59.60
24678;DHT22;12800;53.094;8.778;2022-08-19T10:57:13;23.40;59.30
24678;DHT22;12800;53.094;8.778;2022-08-19T10:59:39;23.50;59.00
24678;DHT22;12800;53.094;8.778;2022-08-19T11:02:08;23.60;58.00
24678;DHT22;12800;53.094;8.778;2022-08-19T11:04:36;23.70;57.20
24678;DHT22;12800;53.094;8.778;2022-08-19T11:07:03;23.80;56.40
24678;DHT22;12800;53.094;8.778;2022-08-19T11:09:30;23.90;56.10
24678;DHT22;12800;53.094;8.778;2022-08-19T11:11:56;24.00;55.70
24678;DHT22;12800;53.094;8.778;2022-08-19T11:14:22;24.10;55.30
24678;DHT22;12800;53.094;8.778;2022-08-19T11:16:51;24.20;55.10
24678;DHT22;12800;53.094;8.778;2022-08-19T11:19:21;24.30;54.90
24678;DHT22;12800;53.094;8.778;2022-08-19T11:21:49;24.40;54.90
24678;DHT22;12800;53.094;8.778;2022-08-19T11:24:21;24.50;54.50
24678;DHT22;12800;53.094;8.778;2022-08-19T11:26:48;24.60;53.80
24678;DHT22;12800;53.094;8.778;2022-08-19T11:29:16;24.70;53.70
24678;DHT22;12800;53.094;8.778;2022-08-19T11:31:44;24.80;53.70
24678;DHT22;12800;53.094;8.778;2022-08-19T11:34:13;24.90;53.60
24678;DHT22;12800;53.094;8.778;2022-08-19T11:36:43;25.00;53.60
24678;DHT22;12800;53.094;8.778;2022-08-19T11:39:11;25.00;53.60
24678;DHT22;12800;53.094;8.778;2022-08-19T11:41:37;25.00;53.40
24678;DHT22;12800;53.094;8.778;2022-08-19T11:44:03;25.10;53.20
24678;DHT22;12800;53.094;8.778;2022-08-19T11:46:30;25.10;52.90
24678;DHT22;12800;53.094;8.778;2022-08-19T11:48:57;25.20;52.90
24678;DHT22;12800;53.094;8.778;2022-08-19T11:51:26;25.30;53.00
24678;DHT22;12800;53.094;8.778;2022-08-19T11:53:55;25.40;52.30
24678;DHT22;12800;53.094;8.778;2022-08-19T11:56:22;25.40;52.20
24678;DHT22;12800;53.094;8.778;2022-08-19T11:58:49;25.50;51.50
24678;DHT22;12800;53.094;8.778;2022-08-19T12:01:18;25.60;51.00
24678;DHT22;12800;53.094;8.778;2022-08-19T12:03:46;25.60;50.50
24678;DHT22;12800;53.094;8.778;2022-08-19T12:06:18;25.70;50.80
24678;DHT22;12800;53.094;8.778;2022-08-19T12:08:44;25.70;50.70
24678;DHT22;12800;53.094;8.778;2022-08-19T12:11:12;25.70;50.50
24678;DHT22;12800;53.094;8.778;2022-08-19T12:13:39;25.70;50.10
24678;DHT22;12800;53.094;8.778;2022-08-19T12:16:26;25.80;50.00
24678;DHT22;12800;53.094;8.778;2022-08-19T12:18:53;25.80;49.80
24678;DHT22;12800;53.094;8.778;2022-08-19T12:21:24;25.90;49.90
24678;DHT22;12800;53.094;8.778;2022-08-19T12:23:51;25.90;49.80
24678;DHT22;12800;53.094;8.778;2022-08-19T12:26:17;25.90;50.00
24678;DHT22;12800;53.094;8.778;2022-08-19T12:28:43;25.90;50.10
24678;DHT22;12800;53.094;8.778;2022-08-19T12:31:10;25.90;50.00
24678;DHT22;12800;53.094;8.778;2022-08-19T12:33:39;26.10;50.10
24678;DHT22;12800;53.094;8.778;2022-08-19T12:36:09;26.20;49.80
24678;DHT22;12800;53.094;8.778;2022-08-19T12:38:36;26.20;49.70
24678;DHT22;12800;53.094;8.778;2022-08-19T12:41:03;26.20;49.60
24678;DHT22;12800;53.094;8.778;2022-08-19T12:43:35;26.30;49.60
24678;DHT22;12800;53.094;8.778;2022-08-19T12:46:01;26.40;49.10
24678;DHT22;12800;53.094;8.778;2022-08-19T12:48:27;26.30;48.90
24678;DHT22;12800;53.094;8.778;2022-08-19T12:50:54;26.40;48.60
24678;DHT22;12800;53.094;8.778;2022-08-19T12:53:20;26.40;48.30
24678;DHT22;12800;53.094;8.778;2022-08-19T12:55:45;26.40;48.20
24678;DHT22;12800;53.094;8.778;2022-08-19T12:58:11;26.40;48.10
24678;DHT22;12800;53.094;8.778;2022-08-19T13:00:38;26.40;48.30
24678;DHT22;12800;53.094;8.778;2022-08-19T13:03:03;26.40;48.30
24678;DHT22;12800;53.094;8.778;2022-08-19T13:05:31;26.50;47.40
24678;DHT22;12800;53.094;8.778;2022-08-19T13:07:58;26.60;46.80
24678;DHT22;12800;53.094;8.778;2022-08-19T13:10:28;26.60;46.00
24678;DHT22;12800;53.094;8.778;2022-08-19T13:12:55;26.70;45.70
24678;DHT22;12800;53.094;8.778;2022-08-19T13:15:22;26.80;46.00
24678;DHT22;12800;53.094;8.778;2022-08-19T13:17:50;26.80;45.50
24678;DHT22;12800;53.094;8.778;2022-08-19T13:20:18;26.90;45.00
24678;DHT22;12800;53.094;8.778;2022-08-19T13:22:45;26.90;45.00
24678;DHT22;12800;53.094;8.778;2022-08-19T13:25:12;27.00;44.60
24678;DHT22;12800;53.094;8.778;2022-08-19T13:27:39;27.10;45.10
24678;DHT22;12800;53.094;8.778;2022-08-19T13:30:07;27.10;44.60
24678;DHT22;12800;53.094;8.778;2022-08-19T13:32:52;27.20;44.90
24678;DHT22;12800;53.094;8.778;2022-08-19T13:35:47;27.20;45.30
24678;DHT22;12800;53.094;8.778;2022-08-19T13:38:15;27.30;45.40
24678;DHT22;12800;53.094;8.778;2022-08-19T13:40:41;27.30;45.20
24678;DHT22;12800;53.094;8.778;2022-08-19T13:43:08;27.40;45.10
24678;DHT22;12800;53.094;8.778;2022-08-19T13:45:35;27.50;45.20
24678;DHT22;12800;53.094;8.778;2022-08-19T13:48:03;27.60;45.00
24678;DHT22;12800;53.094;8.778;2022-08-19T13:50:37;27.60;44.60
24678;DHT22;12800;53.094;8.778;2022-08-19T13:53:03;27.70;44.70
24678;DHT22;12800;53.094;8.778;2022-08-19T13:55:29;27.70;45.00
24678;DHT22;12800;53.094;8.778;2022-08-19T13:57:58;27.80;45.10
24678;DHT22;12800;53.094;8.778;2022-08-19T14:00:29;27.80;45.00
24678;DHT22;12800;53.094;8.778;2022-08-19T14:02:56;27.90;45.30
24678;DHT22;12800;53.094;8.778;2022-08-19T14:05:23;28.00;45.20
24678;DHT22;12800;53.094;8.778;2022-08-19T14:07:50;28.10;45.20
24678;DHT22;12800;53.094;8.778;2022-08-19T14:10:16;28.20;45.20
24678;DHT22;12800;53.094;8.778;2022-08-19T14:12:42;28.30;45.20
24678;DHT22;12800;53.094;8.778;2022-08-19T14:15:09;28.40;45.30
24678;DHT22;12800;53.094;8.778;2022-08-19T14:17:38;28.40;45.50
24678;DHT22;12800;53.094;8.778;2022-08-19T14:20:07;28.50;45.50
24678;DHT22;12800;53.094;8.778;2022-08-19T14:22:35;28.60;45.30
24678;DHT22;12800;53.094;8.778;2022-08-19T14:25:01;28.70;45.40
24678;DHT22;12800;53.094;8.778;2022-08-19T14:27:27;28.80;45.30
24678;DHT22;12800;53.094;8.778;2022-08-19T14:29:52;28.90;45.00
24678;DHT22;12800;53.094;8.778;2022-08-19T14:32:18;28.90;45.00
24678;DHT22;12800;53.094;8.778;2022-08-19T14:34:44;29.00;45.00
24678;DHT22;12800;53.094;8.778;2022-08-19T14:37:14;29.00;45.10
24678;DHT22;12800;53.094;8.778;2022-08-19T14:39:43;29.10;45.20
24678;DHT22;12800;53.094;8.778;2022-08-19T14:42:11;29.10;45.10
24678;DHT22;12800;53.094;8.778;2022-08-19T14:44:37;29.20;45.10
24678;DHT22;12800;53.094;8.778;2022-08-19T14:47:03;29.30;45.20
24678;DHT22;12800;53.094;8.778;2022-08-19T14:49:29;29.40;45.30
24678;DHT22;12800;53.094;8.778;2022-08-19T14:51:54;29.50;45.00
24678;DHT22;12800;53.094;8.778;2022-08-19T14:54:20;29.50;44.50
24678;DHT22;12800;53.094;8.778;2022-08-19T14:56:46;29.60;44.60
24678;DHT22;12800;53.094;8.778;2022-08-19T14:59:12;29.60;44.40
24678;DHT22;12800;53.094;8.778;2022-08-19T15:01:38;29.70;44.40
24678;DHT22;12800;53.094;8.778;2022-08-19T15:04:03;29.70;44.50
24678;DHT22;12800;53.094;8.778;2022-08-19T15:06:29;29.70;43.90
24678;DHT22;12800;53.094;8.778;2022-08-19T15:08:55;29.80;43.80
24678;DHT22;12800;53.094;8.778;2022-08-19T15:11:24;29.90;43.80
24678;DHT22;12800;53.094;8.778;2022-08-19T15:13:52;30.10;43.30
24678;DHT22;12800;53.094;8.778;2022-08-19T15:16:19;30.10;43.50
24678;DHT22;12800;53.094;8.778;2022-08-19T15:18:46;30.20;43.60
24678;DHT22;12800;53.094;8.778;2022-08-19T15:21:15;30.20;43.30
24678;DHT22;12800;53.094;8.778;2022-08-19T15:23:43;30.20;43.10
24678;DHT22;12800;53.094;8.778;2022-08-19T15:26:09;30.20;44.10
24678;DHT22;12800;53.094;8.778;2022-08-19T15:28:35;30.40;43.70
24678;DHT22;12800;53.094;8.778;2022-08-19T15:31:01;30.80;43.70
24678;DHT22;12800;53.094;8.778;2022-08-19T15:33:27;31.10;43.10
24678;DHT22;12800;53.094;8.778;2022-08-19T15:35:53;31.50;42.70
24678;DHT22;12800;53.094;8.778;2022-08-19T15:38:19;31.60;42.20
24678;DHT22;12800;53.094;8.778;2022-08-19T15:40:51;31.80;41.80
24678;DHT22;12800;53.094;8.778;2022-08-19T15:43:18;32.10;41.70
24678;DHT22;12800;53.094;8.778;2022-08-19T15:45:47;32.30;41.20
24678;DHT22;12800;53.094;8.778;2022-08-19T15:48:12;32.40;40.60